createdAt,value
2023-02-09T00:01:38.250Z,97827.63
2023-02-09T00:04:13.811Z,97819.69
2023-02-09T00:06:41.552Z,97824.47
2023-02-09T00:09:20.409Z,97776.19
2023-02-09T00:12:08.680Z,97768.44
2023-02-09T00:14:40.654Z,97816.09
2023-02-09T00:17:11.049Z,97819.47
2023-02-09T00:19:38.810Z,97824.03
2023-02-09T00:22:06.673Z,97817.75
2023-02-09T00:24:38.216Z,97810.75
2023-02-09T00:27:05.996Z,97809.47
2023-02-09T00:29:33.979Z,97800.53
2023-02-09T00:32:03.580Z,97787.84
2023-02-09T00:34:31.375Z,97870.81
2023-02-09T00:36:59.129Z,97816.38
2023-02-09T00:39:28.883Z,97814.69
2023-02-09T00:42:08.609Z,97813.41
2023-02-09T00:44:46.082Z,97797.75
2023-02-09T00:47:17.253Z,97803.09
2023-02-09T00:49:49.850Z,97805.03
2023-02-09T00:52:17.631Z,97787.19
2023-02-09T00:54:48.443Z,97793.00
2023-02-09T00:57:19.196Z,97748.66
2023-02-09T00:59:47.029Z,97801.16
2023-02-09T01:02:19.563Z,97770.84
2023-02-09T01:04:49.939Z,97798.19
2023-02-09T01:07:17.836Z,97794.41
2023-02-09T01:09:52.771Z,97782.63
2023-02-09T01:12:20.649Z,97711.31
2023-02-09T01:14:53.433Z,97805.63
2023-02-09T01:17:24.703Z,97844.72
2023-02-09T01:19:53.613Z,97761.25
2023-02-09T01:22:21.837Z,97738.28
2023-02-09T01:24:59.715Z,97790.13
2023-02-09T01:27:30.118Z,97789.06
2023-02-09T01:30:01.307Z,97774.44
2023-02-09T01:32:30.914Z,97790.03
2023-02-09T01:35:00.980Z,97792.34
2023-02-09T01:37:28.983Z,97772.69
2023-02-09T01:39:58.190Z,97779.69
2023-02-09T01:42:27.552Z,97783.50
2023-02-09T01:45:07.440Z,97769.97
2023-02-09T01:47:43.499Z,97755.94
2023-02-09T01:50:14.535Z,97783.06
2023-02-09T01:52:43.745Z,97785.88
2023-02-09T01:55:18.975Z,97735.03
2023-02-09T01:57:50.925Z,97786.97
2023-02-09T02:00:20.960Z,97778.38
2023-02-09T02:02:56.640Z,97786.22
2023-02-09T02:05:28.005Z,97780.13
2023-02-09T02:07:59.671Z,97782.50
2023-02-09T02:10:30.820Z,97777.88
2023-02-09T02:13:11.106Z,97767.91
2023-02-09T02:15:44.402Z,97773.16
2023-02-09T02:18:23.184Z,97722.16
2023-02-09T02:21:17.285Z,97769.88
2023-02-09T02:23:49.408Z,97775.50
2023-02-09T02:26:33.776Z,97723.94
2023-02-09T02:29:25.563Z,97742.03
2023-02-09T02:32:16.794Z,97762.78
2023-02-09T02:34:47.502Z,97763.69
2023-02-09T02:37:25.818Z,97760.81
2023-02-09T02:40:02.767Z,97777.03
2023-02-09T02:42:51.985Z,97776.19
2023-02-09T02:45:31.205Z,97730.28
2023-02-09T02:48:12.156Z,97763.81
2023-02-09T02:50:47.065Z,97763.81
2023-02-09T02:53:19.739Z,97772.41
2023-02-09T02:55:48.420Z,97745.66
2023-02-09T02:58:17.528Z,97771.81
2023-02-09T03:00:48.468Z,97751.25
2023-02-09T03:03:23.030Z,97756.78
2023-02-09T03:05:51.470Z,97746.22
2023-02-09T03:08:25.432Z,97745.81
2023-02-09T03:10:55.393Z,97748.59
2023-02-09T03:13:35.174Z,97753.19
2023-02-09T03:21:46.664Z,97718.72
2023-02-09T03:24:23.994Z,97751.19
2023-02-09T03:27:03.025Z,97735.25
2023-02-09T03:29:33.193Z,97761.78
2023-02-09T03:32:05.886Z,97739.25
2023-02-09T03:34:36.172Z,97762.59
2023-02-09T03:37:04.011Z,97761.28
2023-02-09T03:39:37.275Z,97745.75
2023-02-09T03:42:05.479Z,97744.81
2023-02-09T03:44:40.289Z,97752.69
2023-02-09T03:47:10.406Z,97756.19
2023-02-09T03:49:42.287Z,97762.97
2023-02-09T03:52:12.288Z,97808.72
2023-02-09T03:54:44.990Z,97767.91
2023-02-09T03:57:13.214Z,97629.50
2023-02-09T03:59:41.357Z,97771.16
2023-02-09T04:02:12.979Z,97763.84
2023-02-09T04:04:52.518Z,97769.22
2023-02-09T04:07:22.594Z,97783.38
2023-02-09T04:09:52.570Z,97772.63
2023-02-09T04:12:20.420Z,97776.84
2023-02-09T04:14:48.178Z,97777.78
2023-02-09T04:17:22.041Z,97779.47
2023-02-09T04:19:51.287Z,97777.47
2023-02-09T04:22:22.808Z,97771.94
2023-02-09T04:24:53.846Z,97766.94
2023-02-09T04:27:31.964Z,97762.28
2023-02-09T04:30:03.242Z,97767.94
2023-02-09T04:32:35.592Z,97769.41
2023-02-09T04:35:07.549Z,97772.28
2023-02-09T04:37:35.308Z,97787.88
2023-02-09T04:40:03.197Z,97771.00
2023-02-09T04:42:32.309Z,97771.38
2023-02-09T04:45:06.293Z,97770.19
2023-02-09T04:47:35.518Z,97774.25
2023-02-09T04:50:05.093Z,97766.97
2023-02-09T04:52:35.707Z,97759.63
2023-02-09T04:55:03.628Z,97767.72
2023-02-09T04:57:59.841Z,97762.38
2023-02-09T05:00:29.382Z,97763.97
2023-02-09T05:02:57.272Z,97759.88
2023-02-09T05:05:26.744Z,97757.63
2023-02-09T05:07:54.541Z,97756.97
2023-02-09T05:10:22.404Z,97449.19
2023-02-09T05:12:53.511Z,97733.16
2023-02-09T05:15:21.576Z,97746.84
2023-02-09T05:17:51.344Z,97770.91
2023-02-09T05:20:21.325Z,97759.69
2023-02-09T05:22:54.544Z,97759.53
2023-02-09T05:25:27.787Z,97746.34
2023-02-09T05:27:55.722Z,97746.78
2023-02-09T05:30:23.721Z,97743.44
2023-02-09T05:32:57.434Z,97749.97
2023-02-09T05:35:25.601Z,97746.13
2023-02-09T05:37:55.104Z,97715.81
2023-02-09T05:40:26.502Z,97707.09
2023-02-09T05:42:55.028Z,97762.16
2023-02-09T05:45:23.597Z,97762.97
2023-02-09T05:47:51.395Z,97763.59
2023-02-09T05:50:26.810Z,97764.81
2023-02-09T05:52:59.263Z,97762.84
2023-02-09T05:55:27.298Z,97761.72
2023-02-09T05:57:57.591Z,97761.75
2023-02-09T06:00:29.954Z,97768.69
2023-02-09T06:02:58.743Z,97776.69
2023-02-09T06:05:27.172Z,97783.44
2023-02-09T06:08:01.362Z,97786.25
2023-02-09T06:10:31.858Z,97782.38
2023-02-09T06:12:59.673Z,97794.22
2023-02-09T06:15:31.026Z,97791.63
2023-02-09T06:17:58.972Z,97785.47
2023-02-09T06:20:29.552Z,97794.06
2023-02-09T06:23:01.946Z,97785.94
2023-02-09T06:25:32.771Z,97790.16
2023-02-09T06:28:00.913Z,97784.97
2023-02-09T06:30:32.881Z,97797.00
2023-02-09T06:33:00.968Z,97790.84
2023-02-09T06:35:28.843Z,97802.22
2023-02-09T06:37:59.280Z,97775.22
2023-02-09T06:40:27.386Z,97801.78
2023-02-09T06:42:55.519Z,97815.47
2023-02-09T06:45:26.827Z,97772.81
2023-02-09T06:47:54.696Z,97816.41
2023-02-09T06:50:22.771Z,97822.66
2023-02-09T06:52:53.310Z,97837.84
2023-02-09T06:55:26.445Z,97821.06
2023-02-09T06:57:55.708Z,97775.97
2023-02-09T07:00:24.579Z,97830.72
2023-02-09T07:02:53.244Z,97819.25
2023-02-09T07:05:23.112Z,97804.66
2023-02-09T07:07:56.938Z,97819.13
2023-02-09T07:10:27.004Z,97689.09
2023-02-09T07:12:55.197Z,97825.91
2023-02-09T07:15:26.924Z,97829.81
2023-02-09T07:17:54.908Z,97808.88
2023-02-09T07:20:22.851Z,97825.03
2023-02-09T07:22:50.901Z,97816.06
2023-02-09T07:25:20.646Z,97833.66
2023-02-09T07:27:50.115Z,97833.19
2023-02-09T07:30:19.352Z,97819.00
2023-02-09T07:32:48.220Z,97841.03
2023-02-09T07:35:19.269Z,97836.34
2023-02-09T07:37:51.563Z,97838.50
2023-02-09T07:40:19.955Z,97809.34
2023-02-09T07:42:49.250Z,97832.88
2023-02-09T07:45:17.456Z,97826.94
2023-02-09T07:47:46.668Z,97845.47
2023-02-09T07:50:19.093Z,97840.38
2023-02-09T07:52:48.020Z,97787.53
2023-02-09T07:55:15.950Z,97758.13
2023-02-09T07:57:44.763Z,97840.84
2023-02-09T08:00:18.524Z,97834.44
2023-02-09T08:02:47.112Z,97851.31
2023-02-09T08:05:19.461Z,97853.38
2023-02-09T08:07:49.655Z,97837.59
2023-02-09T08:10:22.331Z,97850.81
2023-02-09T08:13:02.554Z,97802.00
2023-02-09T08:15:38.053Z,97854.81
2023-02-09T08:18:13.024Z,97860.84
2023-02-09T08:20:41.312Z,97904.44
2023-02-09T08:23:11.730Z,97867.91
2023-02-09T08:25:41.868Z,97860.34
2023-02-09T08:28:09.978Z,97843.72
2023-02-09T08:30:43.023Z,97857.78
2023-02-09T08:33:10.964Z,97783.69
2023-02-09T08:35:39.344Z,97793.00
2023-02-09T08:38:12.059Z,97858.69
2023-02-09T08:40:44.023Z,97859.06
2023-02-09T08:43:12.356Z,97557.34
2023-02-09T08:45:43.360Z,97856.50
2023-02-09T08:48:11.643Z,97853.72
2023-02-09T08:50:46.521Z,97864.88
2023-02-09T08:53:17.422Z,97858.34
2023-02-09T08:55:45.877Z,97852.66
2023-02-09T08:58:14.275Z,97854.50
2023-02-09T09:00:43.946Z,97847.78
2023-02-09T09:03:11.756Z,97850.25
2023-02-09T09:05:42.540Z,97850.53
2023-02-09T09:08:12.979Z,97835.09
2023-02-09T09:10:46.551Z,97844.88
2023-02-09T09:13:15.674Z,97621.75
2023-02-09T09:15:50.784Z,97853.41
2023-02-09T09:18:18.860Z,97844.44
2023-02-09T09:20:50.725Z,97841.13
2023-02-09T09:23:18.748Z,97846.88
2023-02-09T09:25:46.845Z,97843.75
2023-02-09T09:28:16.140Z,97843.13
2023-02-09T09:30:45.603Z,97822.50
2023-02-09T09:33:13.583Z,97842.78
2023-02-09T09:35:44.205Z,97848.66
2023-02-09T09:38:14.747Z,97851.44
2023-02-09T09:40:46.408Z,97841.66
2023-02-09T09:43:22.242Z,97851.50
2023-02-09T09:45:51.661Z,97808.25
2023-02-09T09:48:25.231Z,97776.16
2023-02-09T09:50:56.787Z,97817.00
2023-02-09T09:53:31.878Z,97765.38
2023-02-09T09:56:02.712Z,97864.25
2023-02-09T09:58:36.307Z,97853.66
2023-02-09T10:01:13.297Z,97857.31
2023-02-09T10:03:50.860Z,97853.72
2023-02-09T10:06:21.022Z,97865.53
2023-02-09T10:08:53.500Z,97601.69
2023-02-09T10:11:26.951Z,97860.59
2023-02-09T10:13:59.051Z,97875.16
2023-02-09T10:16:34.834Z,97862.34
2023-02-09T10:19:03.852Z,97869.84
2023-02-09T10:21:37.437Z,97847.59
2023-02-09T10:24:13.029Z,97843.75
2023-02-09T10:26:43.043Z,97799.41
2023-02-09T10:29:24.674Z,97855.28
2023-02-09T10:31:58.969Z,97848.66
2023-02-09T10:34:31.708Z,97845.38
2023-02-09T10:37:18.495Z,97853.69
2023-02-09T10:39:49.076Z,97849.66
2023-02-09T10:42:26.134Z,97829.00
2023-02-09T10:44:58.142Z,97839.03
2023-02-09T10:47:33.085Z,97826.63
2023-02-09T10:50:18.145Z,97847.25
2023-02-09T10:52:58.676Z,97790.06
2023-02-09T10:55:31.637Z,97841.66
2023-02-09T10:58:17.830Z,97852.59
2023-02-09T11:00:57.157Z,97837.28
2023-02-09T11:03:26.520Z,97844.88
2023-02-09T11:06:03.576Z,97826.50
2023-02-09T11:08:45.944Z,97840.06
2023-02-09T11:11:24.547Z,97833.25
2023-02-09T11:13:54.054Z,97827.34
2023-02-09T11:16:59.849Z,97821.06
2023-02-09T11:19:50.082Z,97825.94
2023-02-09T11:22:21.586Z,97824.16
2023-02-09T11:25:02.767Z,97806.56
2023-02-09T11:27:44.910Z,97815.00
2023-02-09T11:30:21.816Z,97813.16
2023-02-09T11:32:53.402Z,97800.88
2023-02-09T11:35:25.953Z,97713.09
2023-02-09T11:37:57.419Z,97794.34
2023-02-09T11:40:29.501Z,97786.31
2023-02-09T11:43:04.091Z,97773.66
2023-02-09T11:45:41.761Z,97783.44
2023-02-09T11:48:12.830Z,97737.19
2023-02-09T11:50:53.975Z,97774.97
2023-02-09T11:53:30.952Z,97775.97
2023-02-09T11:56:00.541Z,97772.63
2023-02-09T11:58:47.549Z,97768.69
2023-02-09T12:01:28.083Z,97741.91
2023-02-09T12:04:11.298Z,97757.00
2023-02-09T12:06:46.610Z,97764.81
2023-02-09T12:09:24.987Z,97738.22
2023-02-09T12:12:04.215Z,97750.72
2023-02-09T12:14:45.020Z,97726.91
2023-02-09T12:17:15.307Z,97742.03
2023-02-09T12:19:50.558Z,97743.03
2023-02-09T12:22:45.290Z,97737.53
2023-02-09T12:25:35.787Z,97732.91
2023-02-09T12:28:42.292Z,97758.03
2023-02-09T12:31:14.019Z,97668.81
2023-02-09T12:34:12.502Z,97734.72
2023-02-09T12:37:01.986Z,97733.19
2023-02-09T12:39:34.880Z,97736.16
2023-02-09T12:42:29.356Z,97721.34
2023-02-09T12:44:59.249Z,97737.38
2023-02-09T12:47:48.149Z,97732.06
2023-02-09T12:50:49.525Z,97665.38
2023-02-09T12:53:45.378Z,97730.19
2023-02-09T12:56:30.252Z,97727.13
2023-02-09T12:59:14.540Z,97671.03
2023-02-09T13:02:18.816Z,97711.31
2023-02-09T13:04:55.588Z,97719.03
2023-02-09T13:07:31.053Z,97629.13
2023-02-09T13:10:00.267Z,97722.38
2023-02-09T13:12:38.293Z,97741.19
2023-02-09T13:15:13.958Z,97737.72
2023-02-09T13:17:48.612Z,97744.19
2023-02-09T13:20:48.885Z,97732.00
2023-02-09T13:23:30.723Z,97689.78
2023-02-09T13:26:20.029Z,97759.16
2023-02-09T13:28:49.423Z,97753.25
2023-02-09T13:31:23.930Z,97757.41
2023-02-09T13:34:04.325Z,97761.56
2023-02-09T13:36:43.223Z,97756.91
2023-02-09T13:39:23.496Z,97754.81
2023-02-09T13:41:55.416Z,97763.88
2023-02-09T13:44:35.184Z,97756.91
2023-02-09T13:47:08.339Z,97754.44
2023-02-09T13:49:41.107Z,97762.22
2023-02-09T13:52:12.242Z,97700.34
2023-02-09T13:54:40.824Z,97756.22
2023-02-09T13:57:16.698Z,97736.50
2023-02-09T13:59:45.988Z,97748.28
2023-02-09T14:02:22.627Z,97649.59
2023-02-09T14:04:56.334Z,97741.41
2023-02-09T14:07:34.796Z,97749.03
2023-02-09T14:10:08.437Z,97727.94
2023-02-09T14:12:55.828Z,97752.53
2023-02-09T14:15:48.849Z,97744.81
2023-02-09T14:18:39.068Z,97758.47
2023-02-09T14:21:20.164Z,97766.78
2023-02-09T14:24:15.142Z,97757.56
2023-02-09T14:26:50.502Z,97772.56
2023-02-09T14:29:20.657Z,97767.78
2023-02-09T14:31:54.869Z,97766.94
2023-02-09T14:34:33.129Z,97779.47
2023-02-09T14:37:17.484Z,97776.22
2023-02-09T14:39:56.825Z,97772.78
2023-02-09T14:42:24.895Z,97766.72
2023-02-09T14:44:57.861Z,97748.06
2023-02-09T14:47:41.246Z,97738.69
2023-02-09T14:50:12.794Z,97783.94
2023-02-09T14:52:50.662Z,97777.69
2023-02-09T14:55:21.016Z,97785.06
2023-02-09T14:57:50.493Z,97752.53
2023-02-09T15:00:24.546Z,97791.03
2023-02-09T15:02:54.740Z,97796.03
2023-02-09T15:05:28.463Z,97794.50
2023-02-09T15:07:59.028Z,97785.47
2023-02-09T15:10:30.565Z,97761.50
2023-02-09T15:13:04.087Z,97794.88
2023-02-09T15:15:33.218Z,97795.75
2023-02-09T15:18:02.581Z,97703.69
2023-02-09T15:20:31.456Z,97797.25
2023-02-09T15:23:02.376Z,97754.75
2023-02-09T15:25:30.607Z,97806.94
2023-02-09T15:27:59.649Z,97742.25
2023-02-09T15:30:30.822Z,97817.97
2023-02-09T15:33:08.528Z,97818.06
2023-02-09T15:35:37.646Z,97810.66
2023-02-09T15:38:05.669Z,97824.66
2023-02-09T15:40:52.838Z,97824.44
2023-02-09T15:43:39.686Z,97833.13
2023-02-09T15:46:26.449Z,97823.16
2023-02-09T15:48:57.790Z,97822.28
2023-02-09T15:51:29.973Z,97829.66
2023-02-09T15:54:00.154Z,97830.50
2023-02-09T15:56:30.337Z,97822.50
2023-02-09T15:59:03.995Z,97828.13
2023-02-09T16:01:42.106Z,97790.88
2023-02-09T16:04:15.074Z,97823.34
2023-02-09T16:06:49.651Z,97823.16
2023-02-09T16:09:19.626Z,97776.84
2023-02-09T16:11:50.542Z,97818.16
2023-02-09T16:14:21.764Z,97838.47
2023-02-09T16:16:50.240Z,97818.63
2023-02-09T16:19:19.733Z,97847.78
2023-02-09T16:21:51.887Z,97852.22
2023-02-09T16:24:24.749Z,97841.06
2023-02-09T16:26:55.641Z,97846.53
2023-02-09T16:29:26.025Z,97854.06
2023-02-09T16:31:54.860Z,97862.59
2023-02-09T16:34:24.067Z,97869.44
2023-02-09T16:36:53.176Z,97863.81
2023-02-09T16:39:22.569Z,97876.16
2023-02-09T16:41:53.724Z,97874.16
2023-02-09T16:44:23.307Z,97883.03
2023-02-09T16:46:53.504Z,97881.00
2023-02-09T16:49:38.030Z,97880.22
2023-02-09T16:52:11.400Z,97881.66
2023-02-09T16:54:48.112Z,97892.13
2023-02-09T16:57:26.659Z,97889.09
2023-02-09T16:59:55.094Z,97892.16
2023-02-09T17:02:38.536Z,97898.22
2023-02-09T17:05:19.153Z,97901.28
2023-02-09T17:07:54.489Z,97883.03
2023-02-09T17:10:25.893Z,97908.34
2023-02-09T17:12:56.852Z,97916.56
2023-02-09T17:15:31.444Z,97889.06
2023-02-09T17:18:04.954Z,97921.44
2023-02-09T17:20:38.527Z,97924.97
2023-02-09T17:23:08.290Z,97896.16
2023-02-09T17:25:36.606Z,97920.91
2023-02-09T17:28:04.636Z,97878.56
2023-02-09T17:30:33.797Z,97915.56
2023-02-09T17:33:05.687Z,97921.69
2023-02-09T17:36:07.198Z,97917.72
2023-02-09T17:38:29.102Z,97863.84
2023-02-09T17:41:02.497Z,97815.69
2023-02-09T17:43:31.472Z,97917.56
2023-02-09T17:45:59.954Z,97922.91
2023-02-09T17:48:28.090Z,97594.19
2023-02-09T17:51:00.269Z,97921.03
2023-02-09T17:53:30.397Z,97929.09
2023-02-09T17:56:04.148Z,97919.22
2023-02-09T17:58:32.189Z,97893.47
2023-02-09T18:01:02.962Z,97930.78
2023-02-09T18:03:31.202Z,97932.66
2023-02-09T18:06:03.091Z,97918.75
2023-02-09T18:08:31.208Z,97926.03
2023-02-09T18:11:00.166Z,97933.00
2023-02-09T18:13:28.575Z,97932.59
2023-02-09T18:16:01.991Z,97943.53
2023-02-09T18:18:36.608Z,97903.59
2023-02-09T18:21:07.943Z,97957.91
2023-02-09T18:23:36.070Z,97963.16
2023-02-09T18:26:09.049Z,97956.28
2023-02-09T18:28:36.992Z,97958.41
2023-02-09T18:31:06.437Z,97964.69
2023-02-09T18:33:34.917Z,97965.91
2023-02-09T18:36:03.417Z,97966.81
2023-02-09T18:38:41.412Z,97974.88
2023-02-09T18:41:12.006Z,97979.97
2023-02-09T18:43:40.319Z,97982.91
2023-02-09T18:46:12.095Z,97975.09
2023-02-09T18:48:41.194Z,97979.38
2023-02-09T18:51:09.108Z,97980.47
2023-02-09T18:53:40.141Z,97986.41
2023-02-09T18:56:08.126Z,97987.91
2023-02-09T18:58:36.716Z,97988.88
2023-02-09T19:01:04.850Z,98006.22
2023-02-09T19:03:37.976Z,97957.28
2023-02-09T19:06:08.980Z,98013.69
2023-02-09T19:08:38.417Z,97989.25
2023-02-09T19:11:09.255Z,98013.84
2023-02-09T19:13:45.996Z,97674.19
2023-02-09T19:16:18.046Z,96732.38
2023-02-09T19:18:50.150Z,97974.84
2023-02-09T19:21:22.000Z,98025.75
2023-02-09T19:23:53.997Z,98034.69
2023-02-09T19:26:25.159Z,98039.25
2023-02-09T19:28:58.045Z,98017.69
2023-02-09T19:31:27.762Z,98027.00
2023-02-09T19:33:58.452Z,98017.88
2023-02-09T19:36:31.642Z,98027.50
2023-02-09T19:39:04.675Z,98080.38
2023-02-09T19:41:32.789Z,98000.91
2023-02-09T19:44:07.315Z,97999.63
2023-02-09T19:46:35.338Z,98028.53
2023-02-09T19:49:06.858Z,97934.84
2023-02-09T19:51:36.983Z,98038.63
2023-02-09T19:54:06.760Z,98035.66
2023-02-09T19:56:37.303Z,98027.81
2023-02-09T19:59:07.699Z,98053.81
2023-02-09T20:01:40.510Z,98041.09
2023-02-09T20:04:08.405Z,98047.41
2023-02-09T20:06:38.456Z,98054.47
2023-02-09T20:09:07.628Z,98048.94
2023-02-09T20:11:40.495Z,97742.53
2023-02-09T20:14:08.398Z,98040.06
2023-02-09T20:16:39.361Z,98051.81
2023-02-09T20:19:10.612Z,98036.72
2023-02-09T20:21:38.643Z,98047.78
2023-02-09T20:24:11.628Z,98016.91
2023-02-09T20:26:42.036Z,98059.47
2023-02-09T20:29:11.224Z,98057.97
2023-02-09T20:31:43.195Z,98053.91
2023-02-09T20:34:15.967Z,98065.38
2023-02-09T20:36:48.149Z,98057.16
2023-02-09T20:39:23.539Z,98053.06
2023-02-09T20:42:13.675Z,98055.38
2023-02-09T20:44:58.864Z,98066.06
2023-02-09T20:47:27.179Z,98059.31
2023-02-09T20:49:57.862Z,98063.53
2023-02-09T20:52:28.589Z,98072.75
2023-02-09T20:54:58.606Z,98015.22
2023-02-09T20:57:30.666Z,98082.13
2023-02-09T21:00:03.006Z,98071.03
2023-02-09T21:02:32.428Z,98085.94
2023-02-09T21:05:00.335Z,98053.50
2023-02-09T21:07:28.090Z,98084.22
2023-02-09T21:09:57.293Z,98091.00
2023-02-09T21:12:25.724Z,98087.47
2023-02-09T21:14:56.587Z,98087.09
2023-02-09T21:17:31.419Z,98087.88
2023-02-09T21:19:59.236Z,98062.03
2023-02-09T21:22:29.991Z,98069.94
2023-02-09T21:25:00.653Z,98092.03
2023-02-09T21:27:30.413Z,98092.41
2023-02-09T21:30:01.415Z,97773.19
2023-02-09T21:32:33.982Z,98071.22
2023-02-09T21:35:03.891Z,98101.78
2023-02-09T21:37:32.593Z,98104.28
2023-02-09T21:40:07.673Z,98103.97
2023-02-09T21:42:39.497Z,98111.63
2023-02-09T21:45:10.959Z,98015.59
2023-02-09T21:47:40.687Z,98107.63
2023-02-09T21:50:11.922Z,98123.72
2023-02-09T21:52:39.757Z,98110.25
2023-02-09T21:55:09.492Z,98117.22
2023-02-09T21:57:40.109Z,98112.41
2023-02-09T22:00:09.803Z,98124.13
2023-02-09T22:02:41.821Z,98107.41
2023-02-09T22:05:09.800Z,98125.81
2023-02-09T22:07:43.343Z,98120.63
2023-02-09T22:10:15.833Z,98126.88
2023-02-09T22:12:44.858Z,98127.50
2023-02-09T22:15:18.022Z,98114.72
2023-02-09T22:17:47.903Z,98135.47
2023-02-09T22:20:18.600Z,98139.84
2023-02-09T22:22:49.602Z,98138.03
2023-02-09T22:25:22.756Z,98143.69
2023-02-09T22:27:52.506Z,98120.06
2023-02-09T22:30:23.486Z,98161.63
2023-02-09T22:32:54.272Z,98105.09
2023-02-09T22:35:23.339Z,98147.00
2023-02-09T22:37:54.787Z,98147.94
2023-02-09T22:40:23.997Z,98108.28
2023-02-09T22:43:00.165Z,98149.78
2023-02-09T22:45:31.212Z,98120.06
2023-02-09T22:47:59.188Z,98128.38
2023-02-09T22:50:29.105Z,98143.34
2023-02-09T22:52:56.987Z,98143.63
2023-02-09T22:55:27.366Z,98107.09
2023-02-09T22:58:00.568Z,98155.13
2023-02-09T23:00:28.438Z,98164.97
2023-02-09T23:03:08.461Z,98168.75
2023-02-09T23:05:38.877Z,98163.88
2023-02-09T23:08:06.636Z,98162.03
2023-02-09T23:10:35.812Z,98160.59
2023-02-09T23:13:09.756Z,98169.72
2023-02-09T23:15:51.661Z,98159.53
2023-02-09T23:18:19.546Z,98171.19
2023-02-09T23:20:52.066Z,98170.88
2023-02-09T23:23:19.839Z,98123.50
2023-02-09T23:25:54.427Z,98171.28
2023-02-09T23:28:22.327Z,98142.22
2023-02-09T23:30:51.880Z,98172.63
2023-02-09T23:33:19.821Z,98174.91
2023-02-09T23:35:56.200Z,98166.13
2023-02-09T23:38:24.036Z,98178.53
2023-02-09T23:40:59.364Z,98170.31
2023-02-09T23:43:30.310Z,98111.75
2023-02-09T23:46:04.048Z,98017.47
2023-02-09T23:48:32.435Z,98175.13
2023-02-09T23:51:02.166Z,98178.09
2023-02-09T23:53:31.109Z,98185.47
2023-02-09T23:56:03.840Z,98138.84
2023-02-09T23:58:36.740Z,98180.38
